Belo Horizonte, Brazil

3:27 AM BRT on July 28, 2014 (GMT -0300)
Tancredo Neves International (SBCF) Elev 2713 ft | 19.64 °S, 43.97 °W | Change Station

Current weather conditions updated 27 minutes ago

Scattered Clouds
Scattered Clouds
57 °F
Feels Like 57 °F
N
8
Wind Variable Wind from SSE

Today is forecast to be Much Warmer than yesterday.

Today
High -- | Low -- °F
--% Chance of Precip.
Yesterday
High -- | Low -- °F
Precip. -- in
6:26 AM 5:38 PM
New Moon, 2% visible
Pressure 30.30 in
Visibility 4.3 miles
Clouds Few 1500 ft
Scattered Clouds 7000 ft
Dew Point 55 °F
Humidity 94%
Rainfall 0.00 in
Snow Depth Not available.
UV 0 out of 12
Pollen Not available.
Air Quality Not available.
Flu Activity Not available.
METAR SBCF 280600Z 15007KT 7000 FEW015 SCT070 14/13 Q1026

More Conditions Fewer Conditions

Pressure 30.30 in
Visibility 4.3 miles
Clouds Few 1500 ft
Scattered Clouds 7000 ft
Dew Point 55 °F
Humidity 94%
Rainfall 0.00 in
Snow Depth Not available.
UV 0 out of 12
Pollen Not available.
Air Quality Not available.
Flu Activity Not available.
METAR SBCF 280600Z 15007KT 7000 FEW015 SCT070 14/13 Q1026

More Conditions Fewer Conditions

10-Day Weather Forecast

Almanac

Astronomy

Jul. 28, 2014 Rise Set
Actual Time 6:26 AM BRT 5:38 PM BRT
Civil Twilight 6:03 AM BRT 6:01 PM BRT
Nautical Twilight 5:36 AM BRT 6:27 PM BRT
Astronomical Twilight 5:10 AM BRT 6:54 PM BRT
Moon 7:16 AM BRT 7:09 PM BRT
Length of Visible Light 11h 57m
Length of Day
11h 11m
Tomorrow will be 0m 45s longer.
New Moon, 2% of the Moon is Illuminated
Today
New Moon
Aug 3
First Quarter
Aug 10
Full
Aug 17
Last Quarter
Aug 25
New

Yesterday's Extremes

Country Highs Country Lows

Community

WunderPhotos

Upload Photos

1,738,289 photos uploaded!

Nearby

Snow Depth

Not available.

Earthquake Activity

City Distance Mag. Time & Date
No recent earthquake activity has been reported nearby.
Minimum magnitude displayed is 2.5.

Coastal Water Temperatures

Place Temperature
No Stations Reporting

Nearby Weather Stations

Station Location Temp. Dew Point Humidity Wind Precip. Elev Updated Type
LifeCenter (ALPHAWX), Belo Horizonte 58.3 °F 54 °F 84% East  at  0.0 mph 0.00 in / hr 3025 ft 3:26 AM BRT Normal
Mangabeiras (ALPHAWX), Belo Horizonte 55.5 °F 54 °F 94% West  at  0.0 mph 0.00 in / hr 3707 ft 3:26 AM BRT Rapid Fire
Palmeiras, Belo Horizonte 61.7 °F 58 °F 88% North  at  0.0 mph 0.00 in / hr 2979 ft 11:59 PM BRT Normal

Show More Stations Show Fewer Stations